createdAt,value
2018-06-23T00:00:17.916Z,3.20
2018-06-23T00:02:45.508Z,2.43
2018-06-23T00:05:12.999Z,3.60
2018-06-23T00:07:40.414Z,3.23
2018-06-23T00:10:07.780Z,3.23
2018-06-23T00:12:35.326Z,3.03
2018-06-23T00:15:03.100Z,3.20
2018-06-23T00:17:30.568Z,3.57
2018-06-23T00:19:58.024Z,3.13
2018-06-23T00:22:25.464Z,3.57
2018-06-23T00:24:52.818Z,3.97
2018-06-23T00:27:20.223Z,3.10
2018-06-23T00:29:47.660Z,3.13
2018-06-23T00:32:15.220Z,2.70
2018-06-23T00:34:44.176Z,3.07
2018-06-23T00:37:11.610Z,4.00
2018-06-23T00:39:39.004Z,3.20
2018-06-23T00:42:06.596Z,3.20
2018-06-23T00:44:34.035Z,6.00
2018-06-23T00:47:01.572Z,3.23
2018-06-23T00:49:28.938Z,2.90
2018-06-23T00:51:56.328Z,3.23
2018-06-23T00:54:23.800Z,3.90
2018-06-23T00:56:51.558Z,3.10
2018-06-23T00:59:30.591Z,2.93
2018-06-23T01:01:57.975Z,4.03
2018-06-23T01:04:25.361Z,3.63
2018-06-23T01:06:53.131Z,3.60
2018-06-23T01:09:20.584Z,3.17
2018-06-23T01:11:48.043Z,3.67
2018-06-23T01:14:15.547Z,2.90
2018-06-23T01:16:42.921Z,2.93
2018-06-23T01:19:10.300Z,3.80
2018-06-23T01:21:38.044Z,3.30
2018-06-23T01:24:05.541Z,2.70
2018-06-23T01:26:32.904Z,3.80
2018-06-23T01:29:00.300Z,3.03
2018-06-23T01:31:27.671Z,3.93
2018-06-23T01:33:55.136Z,3.27
2018-06-23T01:36:22.660Z,3.60
2018-06-23T01:38:50.035Z,3.80
2018-06-23T01:41:17.431Z,4.80
2018-06-23T01:43:44.876Z,2.97
2018-06-23T01:46:12.264Z,3.23
2018-06-23T01:48:39.636Z,3.30
2018-06-23T01:51:06.995Z,3.27
2018-06-23T01:53:34.412Z,2.93
2018-06-23T01:56:01.849Z,3.43
2018-06-23T01:58:29.288Z,4.07
2018-06-23T02:00:56.668Z,3.20
2018-06-23T02:03:24.036Z,3.30
2018-06-23T02:05:51.393Z,3.70
2018-06-23T02:08:18.807Z,3.50
2018-06-23T02:10:46.206Z,3.67
2018-06-23T02:13:13.632Z,3.70
2018-06-23T02:15:50.225Z,4.40
2018-06-23T02:18:23.600Z,3.43
2018-06-23T02:21:55.846Z,4.23
2018-06-23T02:24:28.804Z,3.13
2018-06-23T02:27:02.177Z,3.50
2018-06-23T02:29:35.079Z,3.80
2018-06-23T02:32:08.076Z,3.23
2018-06-23T02:34:41.832Z,4.00
2018-06-23T02:37:09.028Z,3.20
2018-06-23T02:39:36.196Z,4.37
2018-06-23T02:42:03.379Z,3.40
2018-06-23T02:44:30.586Z,3.23
2018-06-23T02:46:57.790Z,3.47
2018-06-23T02:49:24.971Z,3.63
2018-06-23T02:51:52.136Z,3.57
2018-06-23T02:54:19.332Z,4.17
2018-06-23T02:56:46.521Z,3.80
2018-06-23T02:59:13.724Z,3.50
2018-06-23T03:01:40.929Z,5.37
2018-06-23T03:04:08.107Z,4.03
2018-06-23T03:06:35.316Z,3.63
2018-06-23T03:09:04.638Z,3.90
2018-06-23T03:11:31.797Z,3.77
2018-06-23T03:13:59.092Z,3.90
2018-06-23T03:16:26.339Z,3.10
2018-06-23T03:18:53.632Z,3.67
2018-06-23T03:21:20.856Z,4.60
2018-06-23T03:23:48.243Z,3.97
2018-06-23T03:26:15.716Z,2.83
2018-06-23T03:28:43.652Z,3.73
2018-06-23T03:31:10.867Z,3.90
2018-06-23T03:33:38.082Z,3.13
2018-06-23T03:36:05.306Z,3.80
2018-06-23T03:38:32.507Z,4.37
2018-06-23T03:40:59.775Z,3.27
2018-06-23T03:43:26.967Z,3.93
2018-06-23T03:45:54.156Z,3.67
2018-06-23T03:48:21.375Z,4.17
2018-06-23T03:50:48.683Z,3.40
2018-06-23T03:53:15.958Z,3.70
2018-06-23T03:55:43.143Z,3.20
2018-06-23T03:58:12.006Z,4.77
2018-06-23T04:00:43.813Z,4.50
2018-06-23T04:03:11.032Z,3.17
2018-06-23T04:05:42.888Z,4.80
2018-06-23T04:08:10.108Z,4.10
2018-06-23T04:10:37.326Z,3.83
2018-06-23T04:13:04.600Z,3.47
2018-06-23T04:15:31.749Z,3.97
2018-06-23T04:17:58.899Z,4.40
2018-06-23T04:20:26.058Z,4.20
2018-06-23T04:22:53.231Z,4.80
2018-06-23T04:25:20.494Z,4.77
2018-06-23T04:27:47.769Z,3.50
2018-06-23T04:30:15.273Z,4.80
2018-06-23T04:32:42.431Z,3.90
2018-06-23T04:35:09.624Z,3.97
2018-06-23T04:37:36.827Z,4.27
2018-06-23T04:40:03.988Z,3.73
2018-06-23T04:42:31.165Z,3.90
2018-06-23T04:44:58.363Z,4.50
2018-06-23T04:47:25.537Z,4.53
2018-06-23T04:49:52.794Z,4.53
2018-06-23T04:52:19.948Z,3.87
2018-06-23T04:54:47.132Z,3.53
2018-06-23T04:57:14.380Z,3.27
2018-06-23T04:59:41.628Z,5.97
2018-06-23T05:02:08.831Z,4.10
2018-06-23T05:04:36.007Z,4.17
2018-06-23T05:07:03.183Z,4.33
2018-06-23T05:09:30.363Z,4.40
2018-06-23T05:11:57.539Z,4.20
2018-06-23T05:14:24.688Z,4.30
2018-06-23T05:16:51.983Z,4.30
2018-06-23T05:19:19.180Z,5.63
2018-06-23T05:21:46.468Z,3.30
2018-06-23T05:24:13.692Z,5.63
2018-06-23T05:26:40.972Z,4.90
2018-06-23T05:29:08.152Z,4.50
2018-06-23T05:31:35.700Z,3.90
2018-06-23T05:34:02.904Z,5.40
2018-06-23T05:36:30.115Z,5.27
2018-06-23T05:38:57.352Z,3.77
2018-06-23T05:41:24.538Z,3.93
2018-06-23T05:43:51.764Z,4.70
2018-06-23T05:46:18.945Z,3.80
2018-06-23T05:48:46.107Z,4.77
2018-06-23T05:51:13.268Z,5.50
2018-06-23T05:53:40.415Z,3.80
2018-06-23T05:56:07.617Z,4.37
2018-06-23T05:58:34.804Z,4.60
2018-06-23T06:01:01.983Z,5.53
2018-06-23T06:03:29.220Z,5.03
2018-06-23T06:05:56.387Z,4.30
2018-06-23T06:08:23.694Z,5.20
2018-06-23T06:10:50.884Z,4.53
2018-06-23T06:13:18.063Z,4.77
2018-06-23T06:15:45.227Z,4.67
2018-06-23T06:18:12.492Z,4.50
2018-06-23T06:20:39.651Z,4.50
2018-06-23T06:23:06.862Z,5.10
2018-06-23T06:25:34.056Z,5.17
2018-06-23T06:28:01.269Z,6.23
2018-06-23T06:30:28.467Z,5.47
2018-06-23T06:32:55.603Z,6.53
2018-06-23T06:35:22.784Z,7.13
2018-06-23T06:37:49.952Z,5.40
2018-06-23T06:40:17.387Z,5.80
2018-06-23T06:42:44.603Z,6.70
2018-06-23T06:45:11.836Z,5.33
2018-06-23T06:47:39.133Z,7.17
2018-06-23T06:50:06.343Z,6.10
2018-06-23T06:52:33.541Z,6.80
2018-06-23T06:55:05.747Z,7.97
2018-06-23T06:57:32.902Z,7.70
2018-06-23T07:00:00.125Z,7.43
2018-06-23T07:02:27.336Z,8.33
2018-06-23T07:04:54.520Z,7.57
2018-06-23T07:07:21.720Z,8.17
2018-06-23T07:09:48.960Z,7.77
2018-06-23T07:12:16.300Z,8.67
2018-06-23T07:14:43.563Z,8.63
2018-06-23T07:17:10.817Z,7.60
2018-06-23T07:19:38.156Z,7.10
2018-06-23T07:22:05.668Z,7.70
2018-06-23T07:24:33.003Z,7.90
2018-06-23T07:27:00.506Z,7.07
2018-06-23T07:29:27.869Z,8.33
2018-06-23T07:31:56.645Z,8.23
2018-06-23T07:34:24.125Z,9.37
2018-06-23T07:36:51.403Z,8.10
2018-06-23T07:39:18.863Z,6.70
2018-06-23T07:41:46.668Z,8.30
2018-06-23T07:44:14.220Z,7.57
2018-06-23T07:46:41.750Z,7.40
2018-06-23T07:49:09.104Z,8.00
2018-06-23T07:51:36.535Z,7.77
2018-06-23T07:54:03.902Z,8.80
2018-06-23T07:56:31.298Z,7.30
2018-06-23T07:58:58.710Z,6.67
2018-06-23T08:01:26.187Z,8.53
2018-06-23T08:03:53.615Z,7.63
2018-06-23T08:06:21.025Z,7.10
2018-06-23T08:08:48.631Z,6.40
2018-06-23T08:11:16.071Z,6.27
2018-06-23T08:13:43.432Z,5.60
2018-06-23T08:16:10.762Z,5.00
2018-06-23T08:18:38.571Z,4.70
2018-06-23T08:21:06.064Z,4.40
2018-06-23T08:23:33.387Z,3.80
2018-06-23T08:26:00.747Z,5.57
2018-06-23T08:28:28.574Z,4.20
2018-06-23T08:30:55.951Z,5.00
2018-06-23T08:33:23.323Z,4.43
2018-06-23T08:35:50.660Z,4.27
2018-06-23T08:38:19.395Z,4.23
2018-06-23T08:40:47.427Z,4.07
2018-06-23T08:43:14.831Z,6.80
2018-06-23T08:45:42.201Z,5.80
2018-06-23T08:48:09.577Z,6.37
2018-06-23T08:50:36.990Z,5.20
2018-06-23T08:53:04.364Z,5.90
2018-06-23T08:55:32.119Z,5.60
2018-06-23T08:57:59.460Z,5.47
2018-06-23T09:00:26.944Z,4.40
2018-06-23T09:02:54.373Z,5.07
2018-06-23T09:05:21.830Z,4.43
2018-06-23T09:07:49.164Z,3.80
2018-06-23T09:10:16.540Z,3.60
2018-06-23T09:12:45.280Z,4.10
2018-06-23T09:15:13.612Z,3.30
2018-06-23T09:17:41.087Z,2.20
2018-06-23T09:20:08.596Z,4.10
2018-06-23T09:22:36.136Z,2.63
2018-06-23T09:25:03.665Z,2.50
2018-06-23T09:27:31.722Z,2.67
2018-06-23T09:29:59.220Z,2.53
2018-06-23T09:32:26.630Z,2.60
2018-06-23T09:34:54.116Z,3.10
2018-06-23T09:37:21.582Z,2.40
2018-06-23T09:39:50.036Z,3.20
2018-06-23T09:42:18.324Z,2.70
2018-06-23T09:44:45.770Z,2.90
2018-06-23T09:47:13.191Z,2.33
2018-06-23T09:49:40.876Z,2.37
2018-06-23T09:52:08.773Z,1.97
2018-06-23T09:54:36.272Z,1.90
2018-06-23T09:57:04.193Z,2.37
2018-06-23T09:59:31.556Z,2.80
2018-06-23T10:02:04.708Z,2.33
2018-06-23T10:04:32.352Z,2.17
2018-06-23T10:06:59.751Z,1.97
2018-06-23T10:09:27.364Z,1.80
2018-06-23T10:11:54.796Z,2.40
2018-06-23T10:14:22.215Z,2.63
2018-06-23T10:16:49.717Z,2.10
2018-06-23T10:19:17.098Z,2.40
2018-06-23T10:21:44.509Z,2.40
2018-06-23T10:24:11.880Z,2.80
2018-06-23T10:26:39.279Z,1.90
2018-06-23T10:29:06.656Z,2.03
2018-06-23T10:31:38.243Z,2.27
2018-06-23T10:34:05.983Z,2.20
2018-06-23T10:36:38.028Z,2.03
2018-06-23T10:39:07.486Z,2.80
2018-06-23T10:41:34.920Z,2.50
2018-06-23T10:44:02.388Z,2.23
2018-06-23T10:46:31.896Z,2.60
2018-06-23T10:48:59.392Z,2.53
2018-06-23T10:51:26.832Z,2.70
2018-06-23T10:53:54.463Z,2.67
2018-06-23T10:56:21.926Z,2.43
2018-06-23T10:58:49.393Z,3.10
2018-06-23T11:01:16.857Z,3.40
2018-06-23T11:03:44.337Z,2.57
2018-06-23T11:06:11.835Z,3.63
2018-06-23T11:08:39.246Z,3.33
2018-06-23T11:11:06.679Z,3.00
2018-06-23T11:13:36.767Z,2.50
2018-06-23T11:16:04.365Z,2.80
2018-06-23T11:18:32.024Z,2.93
2018-06-23T11:21:00.252Z,3.13
2018-06-23T11:23:27.771Z,2.50
2018-06-23T11:25:56.268Z,2.57
2018-06-23T11:28:23.648Z,2.63
2018-06-23T11:30:51.408Z,3.30
2018-06-23T11:33:19.036Z,3.30
2018-06-23T11:35:46.483Z,3.70
2018-06-23T11:38:13.918Z,3.43
2018-06-23T11:40:41.331Z,3.70
2018-06-23T11:43:08.772Z,3.83
2018-06-23T11:45:36.148Z,4.33
2018-06-23T11:51:00.501Z,3.70
2018-06-23T11:53:28.285Z,4.03
2018-06-23T11:55:55.687Z,2.83
2018-06-23T11:58:23.066Z,3.40
2018-06-23T12:00:50.566Z,3.70
2018-06-23T12:03:18.340Z,3.17
2018-06-23T12:05:45.824Z,3.30
2018-06-23T12:08:13.279Z,2.27
2018-06-23T12:10:41.376Z,2.53
2018-06-23T12:13:09.062Z,2.97
2018-06-23T12:15:36.527Z,2.63
2018-06-23T12:18:04.182Z,2.53
2018-06-23T12:20:35.020Z,2.23
2018-06-23T12:23:02.481Z,2.60
2018-06-23T12:25:29.966Z,2.90
2018-06-23T12:27:57.363Z,2.57
2018-06-23T12:30:24.873Z,3.20
2018-06-23T12:32:52.301Z,2.90
2018-06-23T12:35:20.899Z,2.10
2018-06-23T12:37:48.306Z,2.50
2018-06-23T12:40:15.868Z,2.13
2018-06-23T12:42:43.428Z,2.27
2018-06-23T12:45:10.998Z,2.60
2018-06-23T12:47:38.451Z,2.57
2018-06-23T12:50:07.750Z,2.43
2018-06-23T12:52:36.650Z,2.77
2018-06-23T12:55:04.223Z,2.23
2018-06-23T12:57:31.665Z,2.50
2018-06-23T12:59:59.125Z,1.97
2018-06-23T13:02:26.573Z,2.20
2018-06-23T13:04:58.505Z,1.83
2018-06-23T13:07:26.008Z,2.50
2018-06-23T13:09:53.519Z,2.60
2018-06-23T13:12:20.923Z,2.57
2018-06-23T13:14:48.337Z,2.20
2018-06-23T13:17:15.893Z,2.00
2018-06-23T13:19:45.964Z,2.60
2018-06-23T13:22:13.406Z,2.77
2018-06-23T13:24:40.859Z,3.37
2018-06-23T13:27:08.328Z,2.63
2018-06-23T13:29:35.680Z,2.73
2018-06-23T13:32:03.071Z,2.80
2018-06-23T13:34:30.441Z,3.00
2018-06-23T13:36:57.812Z,3.00
2018-06-23T13:39:25.203Z,2.80
2018-06-23T13:41:52.596Z,2.17
2018-06-23T13:44:19.983Z,2.33
2018-06-23T13:46:47.354Z,3.20
2018-06-23T13:49:14.716Z,1.80
2018-06-23T13:51:42.163Z,2.30
2018-06-23T13:54:09.626Z,3.37
2018-06-23T13:56:37.047Z,2.40
2018-06-23T13:59:04.431Z,2.20
2018-06-23T14:01:31.859Z,2.87
2018-06-23T14:03:59.594Z,4.28
2018-06-23T14:06:26.929Z,2.07
2018-06-23T14:08:54.411Z,2.60
2018-06-23T14:11:22.471Z,1.90
2018-06-23T14:13:49.876Z,3.00
2018-06-23T14:16:17.442Z,12.53
2018-06-23T14:18:45.022Z,2.67
2018-06-23T14:21:12.429Z,3.33
2018-06-23T14:23:39.779Z,3.30
2018-06-23T14:26:07.136Z,3.20
2018-06-23T14:28:34.485Z,2.97
2018-06-23T14:31:01.839Z,4.07
2018-06-23T14:33:29.227Z,5.20
2018-06-23T14:35:56.572Z,4.17
2018-06-23T14:38:24.141Z,2.87
2018-06-23T14:40:51.783Z,2.63
2018-06-23T14:43:19.306Z,3.70
2018-06-23T14:45:46.743Z,2.80
2018-06-23T14:48:14.665Z,3.37
2018-06-23T14:50:42.843Z,2.97
2018-06-23T14:53:10.287Z,2.70
2018-06-23T14:55:37.865Z,2.80
2018-06-23T14:58:09.220Z,2.43
2018-06-23T15:00:36.613Z,2.83
2018-06-23T15:03:04.200Z,3.07
2018-06-23T15:05:31.378Z,2.20
2018-06-23T15:08:13.754Z,2.67
2018-06-23T15:10:52.782Z,2.53
2018-06-23T15:13:20.405Z,2.07
2018-06-23T15:15:47.698Z,2.50
2018-06-23T15:18:17.487Z,2.17
2018-06-23T15:20:44.840Z,2.73
2018-06-23T15:23:12.342Z,2.20
2018-06-23T15:25:39.607Z,2.47
2018-06-23T15:28:06.900Z,2.33
2018-06-23T15:30:34.185Z,1.90
2018-06-23T15:33:01.423Z,2.20
2018-06-23T15:35:28.691Z,2.50
2018-06-23T15:37:55.988Z,1.67
2018-06-23T15:40:23.279Z,1.80
2018-06-23T15:42:50.621Z,2.17
2018-06-23T15:45:18.036Z,1.70
2018-06-23T15:47:45.434Z,2.30
2018-06-23T15:50:12.722Z,2.20
2018-06-23T15:52:40.151Z,2.00
2018-06-23T15:55:07.403Z,2.07
2018-06-23T15:57:34.683Z,1.97
2018-06-23T16:00:01.928Z,1.90
2018-06-23T16:02:29.205Z,1.70
2018-06-23T16:04:59.030Z,1.90
2018-06-23T16:07:26.287Z,1.63
2018-06-23T16:09:53.576Z,1.87
2018-06-23T16:12:20.843Z,1.90
2018-06-23T16:14:48.239Z,1.63
2018-06-23T16:17:15.588Z,1.63
2018-06-23T16:19:45.143Z,1.80
2018-06-23T16:22:12.904Z,1.60
2018-06-23T16:24:40.144Z,1.70
2018-06-23T16:27:07.359Z,1.63
2018-06-23T16:29:34.659Z,1.77
2018-06-23T16:32:01.879Z,1.73
2018-06-23T16:34:31.035Z,1.70
2018-06-23T16:36:58.252Z,2.50
2018-06-23T16:39:25.679Z,1.90
2018-06-23T16:41:53.206Z,2.10
2018-06-23T16:44:20.614Z,2.00
2018-06-23T16:46:49.503Z,2.00
2018-06-23T16:49:16.914Z,2.23
2018-06-23T16:51:44.326Z,1.80
2018-06-23T16:54:11.794Z,1.70
2018-06-23T16:56:44.182Z,2.13
2018-06-23T16:59:11.632Z,1.70
2018-06-23T17:01:39.079Z,2.13
2018-06-23T17:04:06.513Z,2.10
2018-06-23T17:06:34.015Z,1.70
2018-06-23T17:09:01.420Z,1.60
2018-06-23T17:11:30.932Z,2.40
2018-06-23T17:13:58.212Z,2.07
2018-06-23T17:16:25.640Z,2.00
2018-06-23T17:18:53.006Z,1.60
2018-06-23T17:21:20.371Z,1.60
2018-06-23T17:23:47.747Z,1.53
2018-06-23T17:26:18.195Z,1.80
2018-06-23T17:28:45.571Z,1.80
2018-06-23T17:31:12.935Z,1.70
2018-06-23T17:33:40.317Z,2.00
2018-06-23T17:36:07.664Z,2.20
2018-06-23T17:38:35.180Z,1.90
2018-06-23T17:41:06.189Z,2.10
2018-06-23T17:43:33.468Z,2.33
2018-06-23T17:46:00.836Z,1.93
2018-06-23T17:48:28.261Z,2.00
2018-06-23T17:50:55.772Z,2.10
2018-06-23T17:53:23.168Z,1.90
2018-06-23T17:55:50.663Z,2.10
2018-06-23T17:58:20.140Z,1.97
2018-06-23T18:00:47.535Z,2.10
2018-06-23T18:03:14.917Z,2.23
2018-06-23T18:05:42.269Z,2.60
2018-06-23T18:08:09.995Z,1.83
2018-06-23T18:10:37.479Z,2.07
2018-06-23T18:13:05.033Z,1.97
2018-06-23T18:15:34.488Z,1.97
2018-06-23T18:18:02.028Z,1.87
2018-06-23T18:20:29.928Z,1.97
2018-06-23T18:22:57.463Z,1.60
2018-06-23T18:25:24.933Z,2.30
2018-06-23T18:27:52.697Z,2.00
2018-06-23T18:30:20.132Z,2.63
2018-06-23T18:32:47.715Z,2.80
2018-06-23T18:35:15.124Z,1.80
2018-06-23T18:37:42.584Z,1.40
2018-06-23T18:40:10.009Z,2.27
2018-06-23T18:42:37.959Z,1.87
2018-06-23T18:45:05.400Z,2.40
2018-06-23T18:47:32.835Z,2.20
2018-06-23T18:50:00.270Z,2.00
2018-06-23T18:52:27.731Z,2.00
2018-06-23T18:54:55.156Z,2.10
2018-06-23T18:57:22.594Z,1.77
2018-06-23T18:59:50.099Z,2.13
2018-06-23T19:02:17.539Z,2.10
2018-06-23T19:04:45.115Z,2.23
2018-06-23T19:07:12.664Z,2.57
2018-06-23T19:09:40.529Z,2.10
2018-06-23T19:12:09.591Z,2.00
2018-06-23T19:14:37.036Z,2.73
2018-06-23T19:17:04.403Z,2.50
2018-06-23T19:19:31.821Z,2.40
2018-06-23T19:21:59.150Z,1.90
2018-06-23T19:24:26.687Z,2.70
2018-06-23T19:26:54.084Z,1.90
2018-06-23T19:29:21.475Z,2.10
2018-06-23T19:31:49.005Z,2.13
2018-06-23T19:34:16.659Z,2.00
2018-06-23T19:36:44.045Z,2.50
2018-06-23T19:39:11.437Z,1.90
2018-06-23T19:41:38.808Z,1.60
2018-06-23T19:44:06.331Z,1.87
2018-06-23T19:48:54.959Z,1.77
2018-06-23T19:51:22.339Z,1.40
2018-06-23T19:53:49.828Z,2.00
2018-06-23T19:56:17.352Z,1.57
2018-06-23T19:58:44.886Z,1.83
2018-06-23T20:01:12.242Z,31.07
2018-06-23T20:03:39.652Z,43.50
2018-06-23T20:06:07.467Z,14.43
2018-06-23T20:08:34.874Z,13.17
2018-06-23T20:11:02.257Z,5.70
2018-06-23T20:13:29.795Z,4.30
2018-06-23T20:15:57.423Z,3.50
2018-06-23T20:18:29.168Z,3.23
2018-06-23T20:20:56.944Z,2.80
2018-06-23T20:23:24.384Z,2.73
2018-06-23T20:25:51.980Z,2.73
2018-06-23T20:28:20.020Z,1.60
2018-06-23T20:30:48.181Z,1.17
2018-06-23T20:33:16.618Z,0.70
2018-06-23T20:35:44.136Z,0.83
2018-06-23T20:38:11.654Z,0.73
2018-06-23T20:40:39.176Z,0.50
2018-06-23T20:43:06.634Z,1.50
2018-06-23T20:45:34.171Z,0.70
2018-06-23T20:48:02.139Z,1.07
2018-06-23T20:50:29.914Z,0.60
2018-06-23T20:52:57.420Z,1.00
2018-06-23T20:55:25.186Z,1.37
2018-06-23T20:57:52.678Z,2.00
2018-06-23T21:00:20.268Z,2.93
2018-06-23T21:02:47.771Z,3.40
2018-06-23T21:05:15.283Z,3.27
2018-06-23T21:07:42.826Z,2.83
2018-06-23T21:10:21.824Z,3.20
2018-06-23T21:12:49.495Z,3.00
2018-06-23T21:15:16.995Z,2.90
2018-06-23T21:17:44.541Z,3.50
2018-06-23T21:20:11.968Z,2.83
2018-06-23T21:22:40.843Z,58.23
2018-06-23T21:25:08.665Z,4.80
2018-06-23T21:27:36.135Z,6.57
2018-06-23T21:32:37.502Z,2.70
2018-06-23T21:35:04.759Z,3.87
2018-06-23T21:37:32.047Z,2.30
2018-06-23T21:39:59.279Z,3.20
2018-06-23T21:42:26.523Z,2.93
2018-06-23T21:44:53.799Z,6.50
2018-06-23T21:47:21.563Z,20.50
2018-06-23T21:49:48.851Z,65.47
2018-06-23T21:52:16.196Z,49.43
2018-06-23T21:54:43.451Z,16.03
2018-06-23T21:57:10.883Z,24.70
2018-06-23T21:59:38.435Z,27.90
2018-06-23T22:02:05.847Z,34.40
2018-06-23T22:04:33.276Z,26.73
2018-06-23T22:07:00.724Z,25.27
2018-06-23T22:09:28.204Z,27.67
2018-06-23T22:11:55.686Z,34.63
2018-06-23T22:14:23.136Z,36.47
2018-06-23T22:16:50.652Z,33.67
2018-06-23T22:19:18.108Z,35.77
2018-06-23T22:21:45.688Z,29.97
2018-06-23T22:24:13.251Z,26.97
2018-06-23T22:26:40.689Z,26.00
2018-06-23T22:29:08.498Z,23.87
2018-06-23T22:31:36.319Z,20.17
2018-06-23T22:34:03.772Z,16.43
2018-06-23T22:36:31.300Z,16.13
2018-06-23T22:38:58.700Z,15.00
2018-06-23T22:41:26.142Z,14.53
2018-06-23T22:43:53.621Z,9.40
2018-06-23T22:46:21.057Z,11.70
2018-06-23T22:48:48.649Z,10.53
2018-06-23T22:51:16.823Z,10.83
2018-06-23T22:53:44.254Z,10.70
2018-06-23T22:56:11.732Z,8.83
2018-06-23T22:58:39.113Z,7.60
2018-06-23T23:01:06.588Z,9.50
2018-06-23T23:03:34.482Z,8.63
2018-06-23T23:06:02.750Z,7.67
2018-06-23T23:08:30.624Z,7.30
2018-06-23T23:10:58.048Z,6.17
2018-06-23T23:13:25.591Z,6.27
2018-06-23T23:15:53.475Z,6.70
2018-06-23T23:18:20.996Z,5.43
2018-06-23T23:20:48.475Z,5.80
2018-06-23T23:23:15.920Z,5.40
2018-06-23T23:25:43.425Z,4.77
2018-06-23T23:28:11.408Z,6.73
2018-06-23T23:30:38.859Z,6.27
2018-06-23T23:33:06.388Z,5.90
2018-06-23T23:35:33.887Z,5.27
2018-06-23T23:38:01.326Z,6.20
2018-06-23T23:40:28.749Z,5.90
2018-06-23T23:42:56.157Z,6.20
2018-06-23T23:45:23.648Z,4.73
2018-06-23T23:47:51.201Z,5.53
2018-06-23T23:50:18.774Z,6.87
2018-06-23T23:52:46.411Z,6.60
2018-06-23T23:55:13.856Z,5.80
2018-06-23T23:57:41.460Z,6.67
